Ikarus — SWEW — position and weather

sailwx.info

Track history (hours):
 
Tides and Currents Weather Stations Pressure Air Temp Water Temp Dewpoint Dewpoint Depression Visibility Wind Speed Wind Dir Waves Ship Positions

Ikarus

Last reported at 2014-Jul-23 04:33 UTC. Time now 2014-Jul-23 05:44 UTC.
Position N 37°14' W 000°59'.

Length 200 m; draft 6.4 m.

Type: Ship. MMSI: 239513000.

Date/timePositionNaut miles runAvg speedWind from/ knotsBaromVisibWave heightAir tempDewpointWater temp
2014-Jul-23 04:33N 37°14' W 000°59'2121.1
2014-Jul-23 03:33N 36°60' W 001°18'2420.9
2014-Jul-23 02:24N 36°43' W 001°41'1821.5
2014-Jul-23 01:33N 36°30' W 001°57'2320.4
2014-Jul-23 00:25N 36°20' W 002°22'15021.8
2014-Jul-22 17:33N 35°57' W 005°25'3 0.3
2014-Jul-22 09:32N 35°60' W 005°24'15014.4
2014-Jul-21 23:08N 36°25' W 002°22'814.8
2014-Jul-21 22:34N 36°27' W 002°11'1515.1
2014-Jul-21 21:34N 36°36' W 001°57'1715.4
2014-Jul-21 20:29N 36°47' W 001°41'315.5
2014-Jul-21 20:18N 36°49' W 001°38'1215.4
2014-Jul-21 19:33N 36°57' W 001°28'4615.1
2014-Jul-21 16:30N 37°27' W 000°44'1414.9
2014-Jul-21 15:33N 37°37' W 000°32'1514.7
2014-Jul-21 14:31N 37°50' W 000°21'1414.4
2014-Jul-21 13:33N 38°01' W 000°11'8914.7
2014-Jul-21 07:30N 39°18' E 000°47'3116.0
2014-Jul-21 05:33N 39°45' E 001°07'1616.3
2014-Jul-21 04:33N 39°59' E 001°17'1616.3
2014-Jul-21 03:33N 40°13' E 001°28'1616.3
2014-Jul-21 02:33N 40°28' E 001°37'1615.8
2014-Jul-21 01:33N 40°42' E 001°47'1615.6
2014-Jul-21 00:33N 40°56' E 001°56'1715.5
2014-Jul-20 23:29N 41°10' E 002°07'1111.8
2014-Jul-20 22:33N 41°21' E 002°10'1 1.2
2014-Jul-20 21:33N 41°22' E 002°11'0 0.0
2014-Jul-20 20:27N 41°22' E 002°11'0 0.0
2014-Jul-20 19:33N 41°22' E 002°11'1 0.6
2014-Jul-20 18:31N 41°21' E 002°10'7 7.5
2014-Jul-20 17:33N 41°21' E 002°20'1817.8
2014-Jul-20 16:33N 41°31' E 002°40'5217.5
2014-Jul-20 13:33N 42°07' E 003°32'1818.4
2014-Jul-20 12:33N 42°20' E 003°48'4019.6
2014-Jul-20 10:31N 42°32' E 004°40'2420.4
2014-Jul-20 09:19N 42°40' E 005°12'1620.6
2014-Jul-20 08:33N 42°44' E 005°32'2121.3
2014-Jul-20 07:33N 42°50' E 005°60'2221.9
2014-Jul-20 06:33N 42°56' E 006°28'2121.3
2014-Jul-20 05:33N 43°01' E 006°57'2120.6
2014-Jul-20 04:34N 43°06' E 007°24'2120.7
2014-Jul-20 03:33N 43°11' E 007°52'2120.8
2014-Jul-20 02:33N 43°15' E 008°20'2020.5
2014-Jul-20 01:33N 43°20' E 008°47'2020.1
2014-Jul-20 00:33N 43°25' E 009°14'2020.3
2014-Jul-19 23:33N 43°29' E 009°41'2020.0
2014-Jul-19 22:33N 43°30' E 010°09'8 8.3
2014-Jul-19 21:33N 43°35' E 010°18'0 0.0
2014-Jul-19 20:33N 43°35' E 010°18'0 0.0
2014-Jul-19 19:33N 43°35' E 010°18'0 0.0
2014-Jul-19 18:33N 43°35' E 010°18'0 0.0
2014-Jul-19 17:33N 43°35' E 010°18'0 0.0
2014-Jul-19 16:33N 43°35' E 010°18'0 0.0
2014-Jul-19 15:33N 43°35' E 010°18'0 0.0
2014-Jul-19 14:33N 43°35' E 010°18'0 0.0
2014-Jul-19 13:33N 43°35' E 010°18'0 0.0
2014-Jul-19 12:33N 43°35' E 010°18'0 0.0
2014-Jul-19 11:33N 43°35' E 010°18'0 0.0
2014-Jul-19 10:33N 43°35' E 010°18'0 0.0
2014-Jul-19 09:33N 43°35' E 010°18'0 0.0
2014-Jul-19 08:33N 43°35' E 010°18'0 0.0
2014-Jul-19 07:33N 43°35' E 010°18'0 0.0
2014-Jul-19 06:33N 43°35' E 010°18'0 0.0
2014-Jul-19 05:33N 43°35' E 010°18'0 0.0
2014-Jul-19 04:33N 43°35' E 010°18'0 0.0
2014-Jul-19 03:33N 43°35' E 010°18'0 0.0
2014-Jul-19 02:33N 43°35' E 010°18'0 0.0
2014-Jul-19 01:33N 43°35' E 010°18'0 0.0
2014-Jul-19 00:33N 43°35' E 010°18'0 0.0
2014-Jul-18 23:33N 43°35' E 010°18'0 0.0
2014-Jul-18 22:33N 43°35' E 010°18'0 0.0
2014-Jul-18 21:33N 43°35' E 010°18'0 0.0
2014-Jul-18 20:33N 43°35' E 010°18'0 0.0
2014-Jul-18 19:33N 43°35' E 010°18'0 0.0
2014-Jul-18 18:33N 43°35' E 010°18'0 0.0
2014-Jul-18 17:33N 43°35' E 010°18'0 0.0
2014-Jul-18 16:33N 43°35' E 010°18'0 0.0
2014-Jul-18 15:33N 43°35' E 010°18'0 0.0
2014-Jul-18 14:33N 43°35' E 010°18'0 0.0
2014-Jul-18 13:33N 43°35' E 010°18'0 0.0
2014-Jul-18 12:33N 43°35' E 010°18'0 0.0
2014-Jul-18 11:33N 43°35' E 010°18'0 0.0
2014-Jul-18 10:33N 43°35' E 010°18'0 0.0
2014-Jul-18 09:33N 43°35' E 010°18'0 0.0
2014-Jul-18 08:33N 43°35' E 010°18'0 0.0
2014-Jul-18 07:33N 43°35' E 010°18'0 0.0
2014-Jul-18 06:33N 43°35' E 010°18'0 0.0
2014-Jul-18 05:33N 43°35' E 010°18'0 0.0
2014-Jul-18 04:33N 43°35' E 010°18'0 0.0
2014-Jul-18 03:33N 43°35' E 010°18'0 0.0
2014-Jul-18 02:33N 43°35' E 010°18'0 0.0
2014-Jul-18 01:33N 43°35' E 010°18'0 0.0
2014-Jul-18 00:33N 43°35' E 010°18'0 0.0
2014-Jul-17 23:33N 43°35' E 010°18'0 0.0
2014-Jul-17 22:33N 43°35' E 010°18'0 0.0
2014-Jul-17 21:33N 43°35' E 010°18'0 0.0
2014-Jul-17 20:33N 43°35' E 010°18'2 2.4
2014-Jul-17 19:33N 43°32' E 010°17'1616.3
2014-Jul-17 18:33N 43°22' E 010°00'2221.7
2014-Jul-17 17:33N 43°14' E 009°33'2121.0
2014-Jul-17 16:33N 43°07' E 009°06'2221.8
2014-Jul-17 15:33N 42°59' E 008°37'2121.1
2014-Jul-17 14:33N 42°52' E 008°10'2121.0
2014-Jul-17 13:33N 42°45' E 007°43'2121.4
2014-Jul-17 12:33N 42°38' E 007°16'2121.4
2014-Jul-17 11:34N 42°31' E 006°49'2121.2
2014-Jul-17 10:34N 42°23' E 006°22'2121.2
2014-Jul-17 09:34N 42°16' E 005°55'2121.1
2014-Jul-17 08:34N 42°09' E 005°28'2120.9
2014-Jul-17 07:34N 42°02' E 005°01'2120.6
2014-Jul-17 06:34N 41°55' E 004°35'2120.7
2014-Jul-17 05:34N 41°48' E 004°09'2120.9
2014-Jul-17 04:33N 41°41' E 003°42'2121.1
2014-Jul-17 03:33N 41°34' E 003°16'2121.0
2014-Jul-17 02:33N 41°27' E 002°50'2220.6
2014-Jul-17 01:31N 41°19' E 002°23'10 9.5
2014-Jul-17 00:29N 41°21' E 002°10'1 1.0
2014-Jul-16 23:33N 41°22' E 002°11'0 0.0
2014-Jul-16 22:33N 41°22' E 002°11'0 0.0
2014-Jul-16 21:33N 41°22' E 002°11'0 0.0
2014-Jul-16 20:33N 41°22' E 002°11'0 0.0
2014-Jul-16 19:33N 41°22' E 002°11'1 1.0
2014-Jul-16 18:33N 41°21' E 002°10'1616.1
2014-Jul-16 17:33N 41°05' E 002°04'2221.7
2014-Jul-16 16:33N 40°47' E 001°51'2221.5
2014-Jul-16 15:33N 40°27' E 001°38'2121.4
2014-Jul-16 14:33N 40°08' E 001°25'2121.3
2014-Jul-16 13:33N 39°49' E 001°12'2221.5
2014-Jul-16 12:33N 39°30' E 000°60'2221.8
2014-Jul-16 11:33N 39°11' E 000°47'9721.5
2014-Jul-16 07:04N 37°48' W 000°18'1620.9
2014-Jul-16 06:17N 37°35' W 000°30'1620.4
2014-Jul-16 05:30N 37°23' W 000°44'4020.2
2014-Jul-16 03:32N 36°57' W 001°22'2020.6
2014-Jul-16 02:33N 36°44' W 001°40'2120.5
2014-Jul-16 01:31N 36°30' W 002°00'1919.7
2014-Jul-16 00:33N 36°21' W 002°21'15510.7
2014-Jul-15 10:05N 35°56' W 005°31'713.2
2014-Jul-15 09:34N 35°60' W 005°23'14514.0
2014-Jul-14 23:13N 36°25' W 002°27'1115.9
2014-Jul-14 22:33N 36°26' W 002°13'9815.5
2014-Jul-14 16:12N 37°30' W 000°39'914.0
2014-Jul-14 15:33N 37°37' W 000°31'1514.7
2014-Jul-14 14:32N 37°49' W 000°21'1615.7
2014-Jul-14 13:31N 38°02' W 000°09'4615.0
2014-Jul-14 10:25N 38°41' E 000°23'1415.4
2014-Jul-14 09:32N 38°53' E 000°31'6115.2
2014-Jul-14 05:32N 39°47' E 001°08'1515.6
2014-Jul-14 04:33N 40°01' E 001°17'1615.6
2014-Jul-14 03:33N 40°14' E 001°27'1515.4
2014-Jul-14 02:33N 40°28' E 001°36'1615.6
2014-Jul-14 01:33N 40°42' E 001°46'1615.6
2014-Jul-14 00:33N 40°56' E 001°56'1515.6
2014-Jul-13 23:33N 41°09' E 002°05'1212.1
2014-Jul-13 22:33N 41°21' E 002°10'1 1.2
2014-Jul-13 21:33N 41°22' E 002°11'0 0.0
2014-Jul-13 20:33N 41°22' E 002°11'0 0.0
2014-Jul-13 19:32N 41°22' E 002°11'0 0.1
2014-Jul-13 18:32N 41°22' E 002°11'9 8.8
2014-Jul-13 17:31N 41°22' E 002°23'3918.6
2014-Jul-13 15:26N 41°38' E 003°10'9919.2
2014-Jul-13 10:17N 42°20' E 005°10'1419.0
2014-Jul-13 09:33N 42°26' E 005°27'1919.3
2014-Jul-13 08:33N 42°35' E 005°51'1919.1
2014-Jul-13 07:33N 42°43' E 006°14'2019.8
2014-Jul-13 06:33N 42°50' E 006°39'2019.8
2014-Jul-13 05:33N 42°56' E 007°05'  
Track history (hours):
 
Tides and Currents Weather Stations Pressure Air Temp Water Temp Dewpoint Dewpoint Depression Visibility Wind Speed Wind Dir Waves Ship Positions

Ikarus

Last reported at 2014-Jul-23 04:33 UTC. Time now 2014-Jul-23 05:44 UTC.
Position N 37°14' W 000°59'.

Length 200 m; draft 6.4 m.

Type: Ship. MMSI: 239513000.

Date/timePositionNaut miles runAvg speedWind from/ knotsBaromVisibWave heightAir tempDewpointWater temp
2014-Jul-23 04:33N 37°14' W 000°59'2121.1
2014-Jul-23 03:33N 36°60' W 001°18'2420.9
2014-Jul-23 02:24N 36°43' W 001°41'1821.5
2014-Jul-23 01:33N 36°30' W 001°57'2320.4
2014-Jul-23 00:25N 36°20' W 002°22'15021.8
2014-Jul-22 17:33N 35°57' W 005°25'3 0.3
2014-Jul-22 09:32N 35°60' W 005°24'15014.4
2014-Jul-21 23:08N 36°25' W 002°22'814.8
2014-Jul-21 22:34N 36°27' W 002°11'1515.1
2014-Jul-21 21:34N 36°36' W 001°57'1715.4
2014-Jul-21 20:29N 36°47' W 001°41'315.5
2014-Jul-21 20:18N 36°49' W 001°38'1215.4
2014-Jul-21 19:33N 36°57' W 001°28'4615.1
2014-Jul-21 16:30N 37°27' W 000°44'1414.9
2014-Jul-21 15:33N 37°37' W 000°32'1514.7
2014-Jul-21 14:31N 37°50' W 000°21'1414.4
2014-Jul-21 13:33N 38°01' W 000°11'8914.7
2014-Jul-21 07:30N 39°18' E 000°47'3116.0
2014-Jul-21 05:33N 39°45' E 001°07'1616.3
2014-Jul-21 04:33N 39°59' E 001°17'1616.3
2014-Jul-21 03:33N 40°13' E 001°28'1616.3
2014-Jul-21 02:33N 40°28' E 001°37'1615.8
2014-Jul-21 01:33N 40°42' E 001°47'1615.6
2014-Jul-21 00:33N 40°56' E 001°56'1715.5
2014-Jul-20 23:29N 41°10' E 002°07'1111.8
2014-Jul-20 22:33N 41°21' E 002°10'1 1.2
2014-Jul-20 21:33N 41°22' E 002°11'0 0.0
2014-Jul-20 20:27N 41°22' E 002°11'0 0.0
2014-Jul-20 19:33N 41°22' E 002°11'1 0.6
2014-Jul-20 18:31N 41°21' E 002°10'7 7.5
2014-Jul-20 17:33N 41°21' E 002°20'1817.8
2014-Jul-20 16:33N 41°31' E 002°40'5217.5
2014-Jul-20 13:33N 42°07' E 003°32'1818.4
2014-Jul-20 12:33N 42°20' E 003°48'4019.6
2014-Jul-20 10:31N 42°32' E 004°40'2420.4
2014-Jul-20 09:19N 42°40' E 005°12'1620.6
2014-Jul-20 08:33N 42°44' E 005°32'2121.3
2014-Jul-20 07:33N 42°50' E 005°60'2221.9
2014-Jul-20 06:33N 42°56' E 006°28'2121.3
2014-Jul-20 05:33N 43°01' E 006°57'2120.6
2014-Jul-20 04:34N 43°06' E 007°24'2120.7
2014-Jul-20 03:33N 43°11' E 007°52'2120.8
2014-Jul-20 02:33N 43°15' E 008°20'2020.5
2014-Jul-20 01:33N 43°20' E 008°47'2020.1
2014-Jul-20 00:33N 43°25' E 009°14'2020.3
2014-Jul-19 23:33N 43°29' E 009°41'2020.0
2014-Jul-19 22:33N 43°30' E 010°09'8 8.3
2014-Jul-19 21:33N 43°35' E 010°18'0 0.0
2014-Jul-19 20:33N 43°35' E 010°18'0 0.0
2014-Jul-19 19:33N 43°35' E 010°18'0 0.0
2014-Jul-19 18:33N 43°35' E 010°18'0 0.0
2014-Jul-19 17:33N 43°35' E 010°18'0 0.0
2014-Jul-19 16:33N 43°35' E 010°18'0 0.0
2014-Jul-19 15:33N 43°35' E 010°18'0 0.0
2014-Jul-19 14:33N 43°35' E 010°18'0 0.0
2014-Jul-19 13:33N 43°35' E 010°18'0 0.0
2014-Jul-19 12:33N 43°35' E 010°18'0 0.0
2014-Jul-19 11:33N 43°35' E 010°18'0 0.0
2014-Jul-19 10:33N 43°35' E 010°18'0 0.0
2014-Jul-19 09:33N 43°35' E 010°18'0 0.0
2014-Jul-19 08:33N 43°35' E 010°18'0 0.0
2014-Jul-19 07:33N 43°35' E 010°18'0 0.0
2014-Jul-19 06:33N 43°35' E 010°18'0 0.0
2014-Jul-19 05:33N 43°35' E 010°18'0 0.0
2014-Jul-19 04:33N 43°35' E 010°18'0 0.0
2014-Jul-19 03:33N 43°35' E 010°18'0 0.0
2014-Jul-19 02:33N 43°35' E 010°18'0 0.0
2014-Jul-19 01:33N 43°35' E 010°18'0 0.0
2014-Jul-19 00:33N 43°35' E 010°18'0 0.0
2014-Jul-18 23:33N 43°35' E 010°18'0 0.0
2014-Jul-18 22:33N 43°35' E 010°18'0 0.0
2014-Jul-18 21:33N 43°35' E 010°18'0 0.0
2014-Jul-18 20:33N 43°35' E 010°18'0 0.0
2014-Jul-18 19:33N 43°35' E 010°18'0 0.0
2014-Jul-18 18:33N 43°35' E 010°18'0 0.0
2014-Jul-18 17:33N 43°35' E 010°18'0 0.0
2014-Jul-18 16:33N 43°35' E 010°18'0 0.0
2014-Jul-18 15:33N 43°35' E 010°18'0 0.0
2014-Jul-18 14:33N 43°35' E 010°18'0 0.0
2014-Jul-18 13:33N 43°35' E 010°18'0 0.0
2014-Jul-18 12:33N 43°35' E 010°18'0 0.0
2014-Jul-18 11:33N 43°35' E 010°18'0 0.0
2014-Jul-18 10:33N 43°35' E 010°18'0 0.0
2014-Jul-18 09:33N 43°35' E 010°18'0 0.0
2014-Jul-18 08:33N 43°35' E 010°18'0 0.0
2014-Jul-18 07:33N 43°35' E 010°18'0 0.0
2014-Jul-18 06:33N 43°35' E 010°18'0 0.0
2014-Jul-18 05:33N 43°35' E 010°18'0 0.0
2014-Jul-18 04:33N 43°35' E 010°18'0 0.0
2014-Jul-18 03:33N 43°35' E 010°18'0 0.0
2014-Jul-18 02:33N 43°35' E 010°18'0 0.0
2014-Jul-18 01:33N 43°35' E 010°18'0 0.0
2014-Jul-18 00:33N 43°35' E 010°18'0 0.0
2014-Jul-17 23:33N 43°35' E 010°18'0 0.0
2014-Jul-17 22:33N 43°35' E 010°18'0 0.0
2014-Jul-17 21:33N 43°35' E 010°18'0 0.0
2014-Jul-17 20:33N 43°35' E 010°18'2 2.4
2014-Jul-17 19:33N 43°32' E 010°17'1616.3
2014-Jul-17 18:33N 43°22' E 010°00'2221.7
2014-Jul-17 17:33N 43°14' E 009°33'2121.0
2014-Jul-17 16:33N 43°07' E 009°06'2221.8
2014-Jul-17 15:33N 42°59' E 008°37'2121.1
2014-Jul-17 14:33N 42°52' E 008°10'2121.0
2014-Jul-17 13:33N 42°45' E 007°43'2121.4
2014-Jul-17 12:33N 42°38' E 007°16'2121.4
2014-Jul-17 11:34N 42°31' E 006°49'2121.2
2014-Jul-17 10:34N 42°23' E 006°22'2121.2
2014-Jul-17 09:34N 42°16' E 005°55'2121.1
2014-Jul-17 08:34N 42°09' E 005°28'2120.9
2014-Jul-17 07:34N 42°02' E 005°01'2120.6
2014-Jul-17 06:34N 41°55' E 004°35'2120.7
2014-Jul-17 05:34N 41°48' E 004°09'2120.9
2014-Jul-17 04:33N 41°41' E 003°42'2121.1
2014-Jul-17 03:33N 41°34' E 003°16'2121.0
2014-Jul-17 02:33N 41°27' E 002°50'2220.6
2014-Jul-17 01:31N 41°19' E 002°23'10 9.5
2014-Jul-17 00:29N 41°21' E 002°10'1 1.0
2014-Jul-16 23:33N 41°22' E 002°11'0 0.0
2014-Jul-16 22:33N 41°22' E 002°11'0 0.0
2014-Jul-16 21:33N 41°22' E 002°11'0 0.0
2014-Jul-16 20:33N 41°22' E 002°11'0 0.0
2014-Jul-16 19:33N 41°22' E 002°11'1 1.0
2014-Jul-16 18:33N 41°21' E 002°10'1616.1
2014-Jul-16 17:33N 41°05' E 002°04'2221.7
2014-Jul-16 16:33N 40°47' E 001°51'2221.5
2014-Jul-16 15:33N 40°27' E 001°38'2121.4
2014-Jul-16 14:33N 40°08' E 001°25'2121.3
2014-Jul-16 13:33N 39°49' E 001°12'2221.5
2014-Jul-16 12:33N 39°30' E 000°60'2221.8
2014-Jul-16 11:33N 39°11' E 000°47'9721.5
2014-Jul-16 07:04N 37°48' W 000°18'1620.9
2014-Jul-16 06:17N 37°35' W 000°30'1620.4
2014-Jul-16 05:30N 37°23' W 000°44'4020.2
2014-Jul-16 03:32N 36°57' W 001°22'2020.6
2014-Jul-16 02:33N 36°44' W 001°40'2120.5
2014-Jul-16 01:31N 36°30' W 002°00'1919.7
2014-Jul-16 00:33N 36°21' W 002°21'15510.7
2014-Jul-15 10:05N 35°56' W 005°31'713.2
2014-Jul-15 09:34N 35°60' W 005°23'14514.0
2014-Jul-14 23:13N 36°25' W 002°27'1115.9
2014-Jul-14 22:33N 36°26' W 002°13'9815.5
2014-Jul-14 16:12N 37°30' W 000°39'914.0
2014-Jul-14 15:33N 37°37' W 000°31'1514.7
2014-Jul-14 14:32N 37°49' W 000°21'1615.7
2014-Jul-14 13:31N 38°02' W 000°09'4615.0
2014-Jul-14 10:25N 38°41' E 000°23'1415.4
2014-Jul-14 09:32N 38°53' E 000°31'6115.2
2014-Jul-14 05:32N 39°47' E 001°08'1515.6
2014-Jul-14 04:33N 40°01' E 001°17'1615.6
2014-Jul-14 03:33N 40°14' E 001°27'1515.4
2014-Jul-14 02:33N 40°28' E 001°36'1615.6
2014-Jul-14 01:33N 40°42' E 001°46'1615.6
2014-Jul-14 00:33N 40°56' E 001°56'1515.6
2014-Jul-13 23:33N 41°09' E 002°05'1212.1
2014-Jul-13 22:33N 41°21' E 002°10'1 1.2
2014-Jul-13 21:33N 41°22' E 002°11'0 0.0
2014-Jul-13 20:33N 41°22' E 002°11'0 0.0
2014-Jul-13 19:32N 41°22' E 002°11'0 0.1
2014-Jul-13 18:32N 41°22' E 002°11'9 8.8
2014-Jul-13 17:31N 41°22' E 002°23'3918.6
2014-Jul-13 15:26N 41°38' E 003°10'9919.2
2014-Jul-13 10:17N 42°20' E 005°10'1419.0
2014-Jul-13 09:33N 42°26' E 005°27'1919.3
2014-Jul-13 08:33N 42°35' E 005°51'1919.1
2014-Jul-13 07:33N 42°43' E 006°14'2019.8
2014-Jul-13 06:33N 42°50' E 006°39'2019.8
2014-Jul-13 05:33N 42°56' E 007°05'  

Dump ship's entire track history